Contact Info

Augusta Flying Club, Inc

KDNL 240553Z AUTO 23004KT 10SM CLR 22/20 A3007 RMK AO2 SLP177 60003 T02170200 10222 20217 50001


TAF KDNL 240532Z 2406/2506 20005KT P6SM BKN050 FM240800 VRB04KT 5SM BR SCT007 BKN015 TEMPO 2409/2413 BKN007 FM241500 23006KT P6SM BKN035 FM242100 25007KT P6SM VCSH BKN040 OVC100

info@augustaflyingclub.com

Send us a message